createdAt,value
2023-07-02T00:17:40.353Z,17.26
2023-07-02T00:18:27.693Z,17.46
2023-07-02T00:19:27.896Z,17.51
2023-07-02T00:20:27.983Z,17.54
2023-07-02T00:21:28.195Z,17.54
2023-07-02T00:25:36.157Z,17.29
2023-07-02T00:26:36.182Z,17.50
2023-07-02T00:27:35.557Z,17.53
2023-07-02T00:28:35.470Z,17.53
2023-07-02T00:29:35.451Z,17.56
2023-07-02T00:30:35.421Z,17.58
2023-07-02T00:31:35.418Z,17.57
2023-07-02T00:32:36.156Z,17.54
2023-07-02T00:33:35.412Z,17.54
2023-07-02T00:34:35.408Z,17.56
2023-07-02T00:35:35.691Z,17.55
2023-07-02T00:36:35.383Z,17.56
2023-07-02T00:37:35.323Z,17.56
2023-07-02T00:38:35.434Z,17.55
2023-07-02T00:39:35.362Z,17.54
2023-07-02T00:40:35.358Z,17.53
2023-07-02T00:41:35.770Z,17.54
2023-07-02T00:43:55.092Z,17.47
2023-07-02T00:44:55.248Z,17.47
2023-07-02T01:04:49.090Z,16.87
2023-07-02T01:32:23.502Z,16.83
2023-07-02T01:33:23.078Z,16.90
2023-07-02T01:34:23.036Z,16.94
2023-07-02T01:35:23.439Z,16.96
2023-07-02T01:36:23.044Z,16.97
2023-07-02T01:37:23.002Z,16.98
2023-07-02T01:38:22.949Z,16.99
2023-07-02T01:39:22.941Z,17.00
2023-07-02T01:40:23.666Z,17.02
2023-07-02T01:41:23.000Z,17.04
2023-07-02T01:42:22.985Z,17.04
2023-07-02T01:43:22.970Z,17.04
2023-07-02T01:44:22.984Z,17.06
2023-07-02T01:45:23.627Z,17.04
2023-07-02T01:46:23.014Z,17.02
2023-07-02T01:47:23.003Z,17.00
2023-07-02T01:48:22.912Z,16.99
2023-07-02T01:49:22.928Z,16.96
2023-07-02T01:50:23.028Z,16.95
2023-07-02T01:51:22.935Z,16.94
2023-07-02T01:52:22.910Z,16.92
2023-07-02T01:53:22.952Z,16.94
2023-07-02T01:54:23.370Z,16.93
2023-07-02T01:55:22.858Z,16.90
2023-07-02T01:56:22.862Z,16.90
2023-07-02T01:57:22.928Z,16.90
2023-07-02T01:58:22.871Z,16.91
2023-07-02T01:59:22.838Z,16.92
2023-07-02T02:00:22.899Z,16.94
2023-07-02T02:01:22.879Z,16.97
2023-07-02T02:02:23.801Z,16.97
2023-07-02T02:03:22.918Z,16.95
2023-07-02T02:04:22.872Z,16.95
2023-07-02T02:05:22.835Z,16.93
2023-07-02T02:06:22.842Z,16.93
2023-07-02T02:07:22.746Z,16.94
2023-07-02T02:08:22.760Z,16.95
2023-07-02T02:09:22.777Z,16.95
2023-07-02T02:10:22.768Z,16.97
2023-07-02T02:11:23.278Z,17.01
2023-07-02T02:12:22.770Z,17.02
2023-07-02T02:13:22.800Z,17.05
2023-07-02T02:14:22.777Z,17.08
2023-07-02T02:15:22.704Z,17.10
2023-07-02T02:16:23.013Z,17.10
2023-07-02T02:17:22.862Z,17.07
2023-07-02T02:18:22.703Z,17.04
2023-07-02T02:19:22.831Z,17.04
2023-07-02T02:20:22.708Z,17.04
2023-07-02T02:21:22.709Z,17.01
2023-07-02T02:22:22.758Z,17.01
2023-07-02T02:23:22.739Z,17.00
2023-07-02T02:24:22.746Z,16.96
2023-07-02T02:25:22.669Z,16.94
2023-07-02T02:26:22.683Z,16.94
2023-07-02T02:27:22.673Z,16.93
2023-07-02T02:28:22.682Z,16.93
2023-07-02T02:29:22.712Z,16.94
2023-07-02T02:30:22.709Z,16.96
2023-07-02T02:31:22.747Z,16.97
2023-07-02T02:32:22.660Z,16.98
2023-07-02T02:33:22.620Z,16.98
2023-07-02T02:34:22.625Z,16.99
2023-07-02T02:35:22.658Z,16.99
2023-07-02T02:36:23.840Z,16.99
2023-07-02T02:37:22.609Z,16.98
2023-07-02T02:38:22.626Z,16.98
2023-07-02T02:39:22.568Z,16.99
2023-07-02T02:40:22.564Z,17.02
2023-07-02T02:41:22.572Z,17.01
2023-07-02T02:42:22.575Z,17.03
2023-07-02T02:43:22.593Z,17.02
2023-07-02T02:44:22.510Z,17.03
2023-07-02T02:45:22.562Z,17.03
2023-07-02T02:46:22.666Z,17.04
2023-07-02T02:47:22.738Z,17.05
2023-07-02T02:48:22.705Z,17.05
2023-07-02T02:49:22.819Z,17.06
2023-07-02T02:50:22.825Z,17.08
2023-07-02T02:51:22.912Z,17.08
2023-07-02T02:52:22.921Z,17.07
2023-07-02T02:53:23.649Z,17.07
2023-07-02T02:54:23.059Z,17.07
2023-07-02T02:55:23.175Z,17.07
2023-07-02T02:56:23.194Z,17.09
2023-07-02T02:57:23.173Z,17.10
2023-07-02T02:58:23.218Z,17.11
2023-07-02T02:59:23.306Z,17.12
2023-07-02T03:00:23.347Z,17.16
2023-07-02T03:01:23.423Z,17.19
2023-07-02T03:02:23.593Z,17.21
2023-07-02T03:03:24.310Z,17.24
2023-07-02T03:04:23.576Z,17.25
2023-07-02T03:05:23.529Z,17.28
2023-07-02T03:06:23.530Z,17.30
2023-07-02T03:07:23.659Z,17.32
2023-07-02T03:08:23.602Z,17.34
2023-07-02T03:09:23.632Z,17.36
2023-07-02T03:10:23.866Z,17.36
2023-07-02T03:11:23.725Z,17.38
2023-07-02T03:12:25.940Z,17.41
2023-07-02T03:13:23.731Z,17.40
2023-07-02T03:32:31.864Z,16.80
2023-07-02T03:33:35.388Z,16.96
2023-07-02T03:34:35.308Z,17.01
2023-07-02T03:35:35.311Z,17.03
2023-07-02T03:36:36.121Z,17.04
2023-07-02T03:37:35.451Z,17.07
2023-07-02T03:38:35.622Z,17.09
2023-07-02T03:39:35.341Z,17.12
2023-07-02T03:40:35.691Z,17.13
2023-07-02T03:41:35.397Z,17.14
2023-07-02T03:42:35.257Z,17.15
2023-07-02T03:43:35.269Z,17.14
2023-07-02T04:03:22.223Z,16.86
2023-07-02T04:04:22.153Z,16.93
2023-07-02T04:05:22.304Z,16.98
2023-07-02T04:06:22.654Z,17.02
2023-07-02T04:07:22.018Z,17.05
2023-07-02T04:08:22.053Z,17.07
2023-07-02T04:09:22.033Z,17.09
2023-07-02T04:10:21.962Z,17.10
2023-07-02T04:11:21.949Z,17.11
2023-07-02T04:12:21.983Z,17.13
2023-07-02T04:13:21.945Z,17.14
2023-07-02T04:14:21.906Z,17.17
2023-07-02T04:15:21.927Z,17.19
2023-07-02T04:16:22.018Z,17.21
2023-07-02T04:17:21.937Z,17.22
2023-07-02T04:18:21.876Z,17.24
2023-07-02T04:19:21.942Z,17.24
2023-07-02T04:20:21.896Z,17.25
2023-07-02T04:21:21.849Z,17.25
2023-07-02T04:22:21.860Z,17.24
2023-07-02T04:23:21.956Z,17.24
2023-07-02T04:24:21.861Z,17.24
2023-07-02T04:25:29.584Z,17.26
2023-07-02T04:26:51.224Z,17.29
2023-07-02T04:27:49.058Z,17.31
2023-07-02T04:28:22.918Z,17.33
2023-07-02T04:29:21.820Z,17.37
2023-07-02T04:30:21.812Z,17.37
2023-07-02T04:31:21.811Z,17.38
2023-07-02T04:32:21.832Z,17.40
2023-07-02T04:33:22.455Z,17.46
2023-07-02T04:34:21.815Z,17.49
2023-07-02T04:35:21.828Z,17.50
2023-07-02T04:36:21.842Z,17.50
2023-07-02T04:37:21.956Z,17.54
2023-07-02T04:38:21.943Z,17.58
2023-07-02T04:39:21.788Z,17.62
2023-07-02T04:40:21.758Z,17.68
2023-07-02T04:41:21.735Z,17.72
2023-07-02T04:42:21.747Z,17.74
2023-07-02T04:43:21.845Z,17.76
2023-07-02T04:44:21.690Z,17.79
2023-07-02T04:45:21.752Z,17.81
2023-07-02T04:46:21.727Z,17.75
2023-07-02T04:47:21.712Z,17.75
2023-07-02T04:48:21.693Z,17.79
2023-07-02T04:49:21.745Z,17.76
2023-07-02T04:50:21.646Z,17.66
2023-07-02T04:51:21.668Z,17.65
2023-07-02T04:52:21.641Z,17.69
2023-07-02T04:53:21.686Z,17.74
2023-07-02T04:54:21.645Z,17.77
2023-07-02T04:55:21.630Z,17.75
2023-07-02T04:56:21.663Z,17.75
2023-07-02T05:19:13.632Z,17.79
2023-07-02T05:20:14.087Z,18.04
2023-07-02T06:00:02.653Z,18.13
2023-07-02T06:03:26.240Z,18.18
2023-07-02T06:04:25.271Z,18.36
2023-07-02T06:05:25.422Z,18.40
2023-07-02T06:06:25.535Z,18.42
2023-07-02T06:07:25.136Z,18.43
2023-07-02T06:08:25.051Z,18.48
2023-07-02T06:09:25.123Z,18.54
2023-07-02T06:10:25.163Z,18.62
2023-07-02T06:11:25.082Z,18.71
2023-07-02T06:12:25.088Z,18.78
2023-07-02T06:13:25.189Z,18.84
2023-07-02T06:14:25.681Z,18.86
2023-07-02T06:15:25.004Z,19.00
2023-07-02T06:16:25.316Z,19.13
2023-07-02T06:17:25.035Z,19.26
2023-07-02T06:18:25.136Z,19.35
2023-07-02T06:19:25.020Z,19.42
2023-07-02T06:20:25.017Z,19.34
2023-07-02T06:21:25.736Z,19.37
2023-07-02T06:22:26.900Z,19.46
2023-07-02T06:23:25.157Z,19.46
2023-07-02T06:24:25.052Z,19.56
2023-07-02T06:25:25.672Z,19.64
2023-07-02T06:26:25.178Z,19.70
2023-07-02T06:27:25.179Z,19.76
2023-07-02T06:28:25.176Z,19.80
2023-07-02T06:29:25.223Z,19.75
2023-07-02T06:30:25.195Z,19.74
2023-07-02T06:31:25.735Z,19.70
2023-07-02T06:32:25.244Z,19.68
2023-07-02T06:33:25.737Z,19.62
2023-07-02T06:34:25.758Z,19.64
2023-07-02T06:35:25.252Z,19.64
2023-07-02T06:36:25.248Z,19.68
2023-07-02T06:37:25.244Z,19.72
2023-07-02T06:38:26.268Z,19.74
2023-07-02T06:39:25.422Z,19.76
2023-07-02T06:40:25.889Z,19.74
2023-07-02T06:41:25.423Z,19.68
2023-07-02T06:42:25.288Z,19.63
2023-07-02T06:43:25.286Z,19.63
2023-07-02T06:44:25.300Z,19.64
2023-07-02T06:45:25.300Z,19.68
2023-07-02T06:46:25.355Z,19.67
2023-07-02T06:47:26.474Z,19.66
2023-07-02T06:48:25.320Z,19.65
2023-07-02T06:49:25.334Z,19.66
2023-07-02T06:50:25.443Z,19.67
2023-07-02T06:51:25.825Z,19.76
2023-07-02T06:52:25.553Z,19.79
2023-07-02T06:53:25.635Z,19.88
2023-07-02T06:54:25.613Z,19.91
2023-07-02T06:55:25.673Z,20.03
2023-07-02T06:56:25.780Z,20.13
2023-07-02T06:57:25.790Z,20.24
2023-07-02T06:58:25.802Z,20.32
2023-07-02T06:59:25.808Z,20.34
2023-07-02T07:00:25.891Z,20.38
2023-07-02T07:01:25.979Z,20.45
2023-07-02T07:02:25.982Z,20.51
2023-07-02T07:03:25.985Z,20.58
2023-07-02T07:04:26.030Z,20.63
2023-07-02T07:05:25.959Z,20.74
2023-07-02T07:06:26.067Z,20.72
2023-07-02T07:07:25.964Z,20.78
2023-07-02T07:08:26.083Z,20.87
2023-07-02T07:09:26.078Z,20.94
2023-07-02T07:10:26.182Z,20.95
2023-07-02T07:11:26.204Z,20.92
2023-07-02T07:12:26.292Z,21.02
2023-07-02T07:13:26.422Z,21.03
2023-07-02T07:14:27.267Z,21.07
2023-07-02T07:15:26.471Z,21.09
2023-07-02T07:16:26.446Z,21.05
2023-07-02T07:17:26.512Z,21.01
2023-07-02T07:18:26.786Z,21.03
2023-07-02T07:19:26.662Z,21.12
2023-07-02T07:20:26.676Z,21.22
2023-07-02T07:21:26.725Z,21.33
2023-07-02T07:22:26.784Z,21.44
2023-07-02T07:23:26.811Z,21.57
2023-07-02T07:24:26.794Z,21.62
2023-07-02T07:25:26.795Z,21.66
2023-07-02T07:26:26.811Z,21.81
2023-07-02T07:27:26.822Z,22.02
2023-07-02T07:28:26.933Z,22.11
2023-07-02T07:29:26.939Z,22.14
2023-07-02T07:30:26.943Z,22.23
2023-07-02T07:31:27.000Z,22.14
2023-07-02T07:32:27.040Z,22.11
2023-07-02T07:33:27.057Z,22.09
2023-07-02T07:40:09.856Z,22.32
2023-07-02T07:41:10.125Z,22.50
2023-07-02T07:42:10.046Z,22.65
2023-07-02T08:24:11.963Z,22.73
2023-07-02T08:25:12.675Z,23.04
2023-07-02T08:26:11.556Z,23.24
2023-07-02T08:27:11.562Z,23.40
2023-07-02T08:28:11.624Z,23.53
2023-07-02T08:29:12.235Z,23.59
2023-07-02T08:30:11.743Z,23.49
2023-07-02T08:31:11.540Z,23.42
2023-07-02T08:32:11.649Z,23.38
2023-07-02T08:41:38.726Z,22.97
2023-07-02T08:47:51.079Z,23.57
2023-07-02T08:51:28.957Z,24.06
2023-07-02T09:40:51.583Z,29.27
2023-07-02T09:46:58.738Z,28.27
2023-07-02T11:08:36.311Z,31.24
2023-07-02T11:09:36.312Z,31.57
2023-07-02T11:10:36.295Z,32.02
2023-07-02T11:11:35.816Z,32.09
2023-07-02T12:19:46.542Z,27.02
2023-07-02T12:47:18.065Z,27.15
2023-07-02T13:19:46.373Z,26.60
2023-07-02T13:37:31.957Z,26.33
2023-07-02T14:44:41.470Z,25.93
2023-07-02T15:17:37.667Z,25.54
2023-07-02T15:30:25.603Z,25.52
2023-07-02T16:01:05.808Z,25.47
2023-07-02T16:16:05.754Z,25.03
2023-07-02T16:19:57.717Z,24.60
2023-07-02T16:25:58.995Z,24.69
2023-07-02T16:31:27.079Z,25.04
2023-07-02T16:43:13.408Z,24.68
2023-07-02T17:48:13.153Z,23.32
2023-07-02T17:51:08.514Z,23.38
2023-07-02T18:16:26.394Z,22.75
2023-07-02T18:23:24.929Z,22.96
2023-07-02T18:24:25.610Z,23.05
2023-07-02T18:36:26.083Z,22.56
2023-07-02T18:37:13.411Z,22.73
2023-07-02T18:39:32.561Z,22.67
2023-07-02T20:03:41.274Z,19.92
2023-07-02T20:34:49.128Z,19.27
2023-07-02T21:22:17.562Z,18.69
2023-07-02T21:23:17.721Z,18.88
2023-07-02T21:24:16.986Z,18.90
